sensor_id;sensor_type;location;lat;lon;timestamp;P1;durP1;ratioP1;P2;durP2;ratioP2
15637;SDS011;26604;53.596;10.042;2024-01-11T00:02:07;32.80;;;15.00;;
15637;SDS011;26604;53.596;10.042;2024-01-11T00:04:36;37.08;;;15.70;;
15637;SDS011;26604;53.596;10.042;2024-01-11T00:07:02;30.35;;;13.68;;
15637;SDS011;26604;53.596;10.042;2024-01-11T00:09:30;30.88;;;14.20;;
15637;SDS011;26604;53.596;10.042;2024-01-11T00:11:57;33.30;;;15.13;;
15637;SDS011;26604;53.596;10.042;2024-01-11T00:14:24;31.35;;;14.43;;
15637;SDS011;26604;53.596;10.042;2024-01-11T00:16:50;29.92;;;15.05;;
15637;SDS011;26604;53.596;10.042;2024-01-11T00:19:17;32.88;;;14.50;;
15637;SDS011;26604;53.596;10.042;2024-01-11T00:21:46;30.83;;;14.35;;
15637;SDS011;26604;53.596;10.042;2024-01-11T00:24:13;29.58;;;14.43;;
15637;SDS011;26604;53.596;10.042;2024-01-11T00:26:39;29.20;;;13.95;;
15637;SDS011;26604;53.596;10.042;2024-01-11T00:29:07;29.08;;;13.85;;
15637;SDS011;26604;53.596;10.042;2024-01-11T00:31:34;28.38;;;13.13;;
15637;SDS011;26604;53.596;10.042;2024-01-11T00:34:01;31.95;;;13.98;;
15637;SDS011;26604;53.596;10.042;2024-01-11T00:36:28;31.98;;;13.68;;
15637;SDS011;26604;53.596;10.042;2024-01-11T00:38:56;27.15;;;13.30;;
15637;SDS011;26604;53.596;10.042;2024-01-11T00:41:22;28.90;;;12.80;;
15637;SDS011;26604;53.596;10.042;2024-01-11T00:43:49;26.08;;;12.98;;
15637;SDS011;26604;53.596;10.042;2024-01-11T00:46:16;27.75;;;13.00;;
15637;SDS011;26604;53.596;10.042;2024-01-11T00:48:43;27.98;;;13.00;;
15637;SDS011;26604;53.596;10.042;2024-01-11T00:51:10;25.08;;;12.18;;
15637;SDS011;26604;53.596;10.042;2024-01-11T00:53:36;26.10;;;12.90;;
15637;SDS011;26604;53.596;10.042;2024-01-11T00:56:05;24.65;;;12.07;;
15637;SDS011;26604;53.596;10.042;2024-01-11T00:58:32;23.42;;;11.85;;
15637;SDS011;26604;53.596;10.042;2024-01-11T01:00:59;24.55;;;11.57;;
15637;SDS011;26604;53.596;10.042;2024-01-11T01:03:26;28.67;;;12.68;;
15637;SDS011;26604;53.596;10.042;2024-01-11T01:05:52;27.85;;;12.20;;
15637;SDS011;26604;53.596;10.042;2024-01-11T01:08:19;22.15;;;11.57;;
15637;SDS011;26604;53.596;10.042;2024-01-11T01:10:46;22.90;;;11.77;;
15637;SDS011;26604;53.596;10.042;2024-01-11T01:13:14;27.35;;;12.45;;
15637;SDS011;26604;53.596;10.042;2024-01-11T01:15:41;27.08;;;12.18;;
15637;SDS011;26604;53.596;10.042;2024-01-11T01:18:08;24.65;;;12.73;;
15637;SDS011;26604;53.596;10.042;2024-01-11T01:20:34;23.83;;;11.20;;
15637;SDS011;26604;53.596;10.042;2024-01-11T01:23:01;26.60;;;11.98;;
15637;SDS011;26604;53.596;10.042;2024-01-11T01:25:29;24.30;;;11.63;;
15637;SDS011;26604;53.596;10.042;2024-01-11T01:27:55;25.73;;;12.30;;
15637;SDS011;26604;53.596;10.042;2024-01-11T01:30:25;24.60;;;11.98;;
15637;SDS011;26604;53.596;10.042;2024-01-11T01:32:52;24.25;;;11.35;;
15637;SDS011;26604;53.596;10.042;2024-01-11T01:35:19;27.23;;;13.02;;
15637;SDS011;26604;53.596;10.042;2024-01-11T01:37:46;27.33;;;11.77;;
15637;SDS011;26604;53.596;10.042;2024-01-11T01:40:13;26.20;;;12.95;;
15637;SDS011;26604;53.596;10.042;2024-01-11T01:42:41;27.92;;;13.07;;
15637;SDS011;26604;53.596;10.042;2024-01-11T01:45:09;24.05;;;11.50;;
15637;SDS011;26604;53.596;10.042;2024-01-11T01:47:37;26.45;;;11.73;;
15637;SDS011;26604;53.596;10.042;2024-01-11T01:50:06;29.35;;;12.68;;
15637;SDS011;26604;53.596;10.042;2024-01-11T01:52:33;31.05;;;13.35;;
15637;SDS011;26604;53.596;10.042;2024-01-11T01:55:01;31.42;;;13.00;;
15637;SDS011;26604;53.596;10.042;2024-01-11T01:57:29;25.35;;;12.20;;
15637;SDS011;26604;53.596;10.042;2024-01-11T01:59:58;25.95;;;12.40;;
15637;SDS011;26604;53.596;10.042;2024-01-11T02:02:26;27.73;;;12.48;;
15637;SDS011;26604;53.596;10.042;2024-01-11T02:04:56;27.10;;;12.05;;
15637;SDS011;26604;53.596;10.042;2024-01-11T02:07:23;29.33;;;13.15;;
15637;SDS011;26604;53.596;10.042;2024-01-11T02:09:50;28.42;;;12.63;;
15637;SDS011;26604;53.596;10.042;2024-01-11T02:12:18;26.55;;;12.57;;
15637;SDS011;26604;53.596;10.042;2024-01-11T02:14:46;33.70;;;14.27;;
15637;SDS011;26604;53.596;10.042;2024-01-11T02:17:13;29.40;;;13.98;;
15637;SDS011;26604;53.596;10.042;2024-01-11T02:19:40;30.20;;;13.57;;
15637;SDS011;26604;53.596;10.042;2024-01-11T02:22:11;28.65;;;13.18;;
15637;SDS011;26604;53.596;10.042;2024-01-11T02:24:51;32.83;;;13.88;;
15637;SDS011;26604;53.596;10.042;2024-01-11T02:27:18;31.30;;;14.02;;
15637;SDS011;26604;53.596;10.042;2024-01-11T02:29:45;36.85;;;16.13;;
15637;SDS011;26604;53.596;10.042;2024-01-11T02:32:12;31.45;;;14.13;;
15637;SDS011;26604;53.596;10.042;2024-01-11T02:34:39;31.17;;;14.27;;
15637;SDS011;26604;53.596;10.042;2024-01-11T02:37:06;35.75;;;15.93;;
15637;SDS011;26604;53.596;10.042;2024-01-11T02:39:33;34.30;;;15.00;;
15637;SDS011;26604;53.596;10.042;2024-01-11T02:42:01;38.50;;;16.52;;
15637;SDS011;26604;53.596;10.042;2024-01-11T02:44:28;36.22;;;15.70;;
15637;SDS011;26604;53.596;10.042;2024-01-11T02:46:55;36.40;;;16.42;;
15637;SDS011;26604;53.596;10.042;2024-01-11T02:49:22;32.80;;;15.13;;
15637;SDS011;26604;53.596;10.042;2024-01-11T02:51:49;34.55;;;15.35;;
15637;SDS011;26604;53.596;10.042;2024-01-11T02:54:16;36.53;;;16.23;;
15637;SDS011;26604;53.596;10.042;2024-01-11T02:56:42;35.15;;;15.60;;
15637;SDS011;26604;53.596;10.042;2024-01-11T02:59:11;39.47;;;17.00;;
15637;SDS011;26604;53.596;10.042;2024-01-11T03:01:38;39.47;;;17.42;;
15637;SDS011;26604;53.596;10.042;2024-01-11T03:04:05;37.03;;;16.00;;
15637;SDS011;26604;53.596;10.042;2024-01-11T03:06:32;42.67;;;17.67;;
15637;SDS011;26604;53.596;10.042;2024-01-11T03:08:58;43.22;;;16.88;;
15637;SDS011;26604;53.596;10.042;2024-01-11T03:11:25;37.00;;;16.27;;
15637;SDS011;26604;53.596;10.042;2024-01-11T03:13:52;42.25;;;17.15;;
15637;SDS011;26604;53.596;10.042;2024-01-11T03:16:22;40.58;;;16.02;;
15637;SDS011;26604;53.596;10.042;2024-01-11T03:18:48;41.17;;;16.73;;
15637;SDS011;26604;53.596;10.042;2024-01-11T03:21:15;40.88;;;16.92;;
15637;SDS011;26604;53.596;10.042;2024-01-11T03:23:43;34.75;;;13.98;;
15637;SDS011;26604;53.596;10.042;2024-01-11T03:26:13;33.80;;;14.88;;
15637;SDS011;26604;53.596;10.042;2024-01-11T03:28:40;40.33;;;15.32;;
15637;SDS011;26604;53.596;10.042;2024-01-11T03:31:07;33.80;;;15.18;;
15637;SDS011;26604;53.596;10.042;2024-01-11T03:33:36;28.25;;;12.60;;
15637;SDS011;26604;53.596;10.042;2024-01-11T03:36:06;30.67;;;14.32;;
15637;SDS011;26604;53.596;10.042;2024-01-11T03:38:33;29.08;;;14.50;;
15637;SDS011;26604;53.596;10.042;2024-01-11T03:41:00;30.63;;;13.98;;
15637;SDS011;26604;53.596;10.042;2024-01-11T03:43:27;37.65;;;14.85;;
15637;SDS011;26604;53.596;10.042;2024-01-11T03:45:54;36.15;;;16.25;;
15637;SDS011;26604;53.596;10.042;2024-01-11T03:48:21;35.05;;;13.57;;
15637;SDS011;26604;53.596;10.042;2024-01-11T03:50:49;33.63;;;14.65;;
15637;SDS011;26604;53.596;10.042;2024-01-11T03:53:16;34.25;;;14.20;;
15637;SDS011;26604;53.596;10.042;2024-01-11T03:55:43;34.25;;;14.57;;
15637;SDS011;26604;53.596;10.042;2024-01-11T03:58:10;36.78;;;15.85;;
15637;SDS011;26604;53.596;10.042;2024-01-11T04:00:37;31.05;;;14.00;;
15637;SDS011;26604;53.596;10.042;2024-01-11T04:03:05;35.80;;;15.52;;
15637;SDS011;26604;53.596;10.042;2024-01-11T04:05:32;42.88;;;16.63;;
15637;SDS011;26604;53.596;10.042;2024-01-11T04:08:02;38.67;;;16.90;;
15637;SDS011;26604;53.596;10.042;2024-01-11T04:10:30;42.15;;;17.83;;
15637;SDS011;26604;53.596;10.042;2024-01-11T04:12:57;39.10;;;17.58;;
15637;SDS011;26604;53.596;10.042;2024-01-11T04:15:24;35.10;;;14.77;;
15637;SDS011;26604;53.596;10.042;2024-01-11T04:17:51;40.72;;;17.60;;
15637;SDS011;26604;53.596;10.042;2024-01-11T04:20:18;41.53;;;16.95;;
15637;SDS011;26604;53.596;10.042;2024-01-11T04:22:45;41.13;;;18.25;;
15637;SDS011;26604;53.596;10.042;2024-01-11T04:25:13;46.42;;;17.65;;
15637;SDS011;26604;53.596;10.042;2024-01-11T04:27:40;49.83;;;19.92;;
15637;SDS011;26604;53.596;10.042;2024-01-11T04:30:07;47.17;;;19.33;;
15637;SDS011;26604;53.596;10.042;2024-01-11T04:32:34;38.70;;;17.15;;
15637;SDS011;26604;53.596;10.042;2024-01-11T04:35:02;48.15;;;19.25;;
15637;SDS011;26604;53.596;10.042;2024-01-11T04:37:29;44.75;;;18.80;;
15637;SDS011;26604;53.596;10.042;2024-01-11T04:39:57;51.25;;;20.42;;
15637;SDS011;26604;53.596;10.042;2024-01-11T04:42:27;52.72;;;21.10;;
15637;SDS011;26604;53.596;10.042;2024-01-11T04:44:54;48.92;;;20.25;;
15637;SDS011;26604;53.596;10.042;2024-01-11T04:47:20;49.65;;;21.08;;
15637;SDS011;26604;53.596;10.042;2024-01-11T04:49:47;50.80;;;20.85;;
15637;SDS011;26604;53.596;10.042;2024-01-11T04:52:14;50.35;;;21.02;;
15637;SDS011;26604;53.596;10.042;2024-01-11T04:54:41;46.00;;;20.50;;
15637;SDS011;26604;53.596;10.042;2024-01-11T04:57:08;47.45;;;21.15;;
15637;SDS011;26604;53.596;10.042;2024-01-11T04:59:36;43.00;;;17.95;;
15637;SDS011;26604;53.596;10.042;2024-01-11T05:02:03;48.22;;;19.73;;
15637;SDS011;26604;53.596;10.042;2024-01-11T05:04:30;41.92;;;19.42;;
15637;SDS011;26604;53.596;10.042;2024-01-11T05:06:57;49.47;;;19.40;;
15637;SDS011;26604;53.596;10.042;2024-01-11T05:09:23;42.65;;;18.35;;
15637;SDS011;26604;53.596;10.042;2024-01-11T05:11:50;44.28;;;18.55;;
15637;SDS011;26604;53.596;10.042;2024-01-11T05:14:17;51.83;;;20.92;;
15637;SDS011;26604;53.596;10.042;2024-01-11T05:16:45;45.38;;;19.42;;
15637;SDS011;26604;53.596;10.042;2024-01-11T05:19:11;47.42;;;19.20;;
15637;SDS011;26604;53.596;10.042;2024-01-11T05:21:38;43.90;;;19.55;;
15637;SDS011;26604;53.596;10.042;2024-01-11T05:24:05;47.63;;;20.02;;
15637;SDS011;26604;53.596;10.042;2024-01-11T05:26:32;44.25;;;19.25;;
15637;SDS011;26604;53.596;10.042;2024-01-11T05:28:58;48.65;;;20.98;;
15637;SDS011;26604;53.596;10.042;2024-01-11T05:31:25;48.72;;;19.05;;
15637;SDS011;26604;53.596;10.042;2024-01-11T05:33:53;43.90;;;19.05;;
15637;SDS011;26604;53.596;10.042;2024-01-11T05:36:20;43.40;;;18.25;;
15637;SDS011;26604;53.596;10.042;2024-01-11T05:38:47;47.78;;;19.80;;
15637;SDS011;26604;53.596;10.042;2024-01-11T05:41:14;39.00;;;17.55;;
15637;SDS011;26604;53.596;10.042;2024-01-11T05:43:41;41.92;;;16.85;;
15637;SDS011;26604;53.596;10.042;2024-01-11T05:46:09;39.03;;;17.52;;
15637;SDS011;26604;53.596;10.042;2024-01-11T05:48:36;45.67;;;18.27;;
15637;SDS011;26604;53.596;10.042;2024-01-11T05:51:04;46.38;;;19.35;;
15637;SDS011;26604;53.596;10.042;2024-01-11T05:53:31;46.85;;;17.77;;
15637;SDS011;26604;53.596;10.042;2024-01-11T05:56:00;42.92;;;17.40;;
15637;SDS011;26604;53.596;10.042;2024-01-11T05:58:28;40.08;;;17.30;;
15637;SDS011;26604;53.596;10.042;2024-01-11T06:00:55;47.33;;;17.60;;
15637;SDS011;26604;53.596;10.042;2024-01-11T06:03:22;44.63;;;18.30;;
15637;SDS011;26604;53.596;10.042;2024-01-11T06:05:49;39.35;;;17.05;;
15637;SDS011;26604;53.596;10.042;2024-01-11T06:08:17;41.58;;;16.73;;
15637;SDS011;26604;53.596;10.042;2024-01-11T06:10:44;44.75;;;18.58;;
15637;SDS011;26604;53.596;10.042;2024-01-11T06:13:11;40.00;;;15.10;;
15637;SDS011;26604;53.596;10.042;2024-01-11T06:15:37;41.40;;;17.15;;
15637;SDS011;26604;53.596;10.042;2024-01-11T06:18:04;39.25;;;16.17;;
15637;SDS011;26604;53.596;10.042;2024-01-11T06:20:31;34.78;;;16.02;;
15637;SDS011;26604;53.596;10.042;2024-01-11T06:22:58;38.10;;;16.30;;
15637;SDS011;26604;53.596;10.042;2024-01-11T06:25:26;36.85;;;14.23;;
15637;SDS011;26604;53.596;10.042;2024-01-11T06:27:53;40.20;;;16.33;;
15637;SDS011;26604;53.596;10.042;2024-01-11T06:30:20;43.55;;;16.58;;
15637;SDS011;26604;53.596;10.042;2024-01-11T06:32:47;33.30;;;13.65;;
15637;SDS011;26604;53.596;10.042;2024-01-11T06:35:14;38.67;;;15.15;;
15637;SDS011;26604;53.596;10.042;2024-01-11T06:37:41;40.35;;;14.50;;
15637;SDS011;26604;53.596;10.042;2024-01-11T06:40:08;36.30;;;14.70;;
15637;SDS011;26604;53.596;10.042;2024-01-11T06:42:36;35.80;;;12.82;;
15637;SDS011;26604;53.596;10.042;2024-01-11T06:45:03;36.13;;;14.65;;
15637;SDS011;26604;53.596;10.042;2024-01-11T06:47:31;34.45;;;13.63;;
15637;SDS011;26604;53.596;10.042;2024-01-11T06:49:58;34.33;;;13.43;;
15637;SDS011;26604;53.596;10.042;2024-01-11T06:52:25;39.08;;;14.13;;
15637;SDS011;26604;53.596;10.042;2024-01-11T06:54:52;55.58;;;14.20;;
15637;SDS011;26604;53.596;10.042;2024-01-11T06:57:19;42.08;;;13.68;;
15637;SDS011;26604;53.596;10.042;2024-01-11T06:59:47;47.15;;;14.63;;
15637;SDS011;26604;53.596;10.042;2024-01-11T07:02:15;36.63;;;10.57;;
15637;SDS011;26604;53.596;10.042;2024-01-11T07:04:55;28.73;;;11.38;;
15637;SDS011;26604;53.596;10.042;2024-01-11T07:07:22;75.22;;;11.63;;
15637;SDS011;26604;53.596;10.042;2024-01-11T07:09:49;25.42;;;10.20;;
15637;SDS011;26604;53.596;10.042;2024-01-11T07:12:20;27.20;;;10.27;;
15637;SDS011;26604;53.596;10.042;2024-01-11T07:14:48;30.45;;;11.18;;
15637;SDS011;26604;53.596;10.042;2024-01-11T07:17:15;28.15;;;10.13;;
15637;SDS011;26604;53.596;10.042;2024-01-11T07:22:49;33.30;;;10.70;;
15637;SDS011;26604;53.596;10.042;2024-01-11T07:25:15;42.08;;;10.48;;
15637;SDS011;26604;53.596;10.042;2024-01-11T07:27:42;27.13;;;9.60;;
15637;SDS011;26604;53.596;10.042;2024-01-11T07:30:12;41.28;;;10.07;;
15637;SDS011;26604;53.596;10.042;2024-01-11T07:32:39;45.58;;;9.73;;
15637;SDS011;26604;53.596;10.042;2024-01-11T07:35:06;54.15;;;9.32;;
15637;SDS011;26604;53.596;10.042;2024-01-11T07:37:35;48.53;;;10.30;;
15637;SDS011;26604;53.596;10.042;2024-01-11T07:40:02;29.52;;;8.68;;
15637;SDS011;26604;53.596;10.042;2024-01-11T07:42:30;37.83;;;8.25;;
15637;SDS011;26604;53.596;10.042;2024-01-11T07:44:57;58.45;;;9.70;;
15637;SDS011;26604;53.596;10.042;2024-01-11T07:47:25;42.72;;;10.43;;
15637;SDS011;26604;53.596;10.042;2024-01-11T07:49:51;25.58;;;8.90;;
15637;SDS011;26604;53.596;10.042;2024-01-11T07:52:18;29.02;;;9.27;;
15637;SDS011;26604;53.596;10.042;2024-01-11T07:54:46;26.52;;;8.77;;
15637;SDS011;26604;53.596;10.042;2024-01-11T07:57:13;25.73;;;9.43;;
15637;SDS011;26604;53.596;10.042;2024-01-11T07:59:40;29.58;;;9.10;;
15637;SDS011;26604;53.596;10.042;2024-01-11T08:02:06;26.77;;;8.35;;
15637;SDS011;26604;53.596;10.042;2024-01-11T08:04:35;21.48;;;7.78;;
15637;SDS011;26604;53.596;10.042;2024-01-11T08:07:03;23.83;;;8.32;;
15637;SDS011;26604;53.596;10.042;2024-01-11T08:09:30;27.30;;;9.10;;
15637;SDS011;26604;53.596;10.042;2024-01-11T08:11:57;29.15;;;10.25;;
15637;SDS011;26604;53.596;10.042;2024-01-11T08:14:24;21.85;;;7.88;;
15637;SDS011;26604;53.596;10.042;2024-01-11T08:16:51;22.15;;;9.25;;
15637;SDS011;26604;53.596;10.042;2024-01-11T08:19:18;26.17;;;9.10;;
15637;SDS011;26604;53.596;10.042;2024-01-11T08:21:46;25.30;;;9.43;;
15637;SDS011;26604;53.596;10.042;2024-01-11T08:24:13;23.10;;;8.77;;
15637;SDS011;26604;53.596;10.042;2024-01-11T08:26:40;24.55;;;8.98;;
15637;SDS011;26604;53.596;10.042;2024-01-11T08:29:07;22.13;;;7.60;;
15637;SDS011;26604;53.596;10.042;2024-01-11T08:31:34;28.67;;;9.32;;
15637;SDS011;26604;53.596;10.042;2024-01-11T08:34:01;25.70;;;8.70;;
15637;SDS011;26604;53.596;10.042;2024-01-11T08:36:30;26.63;;;9.43;;
15637;SDS011;26604;53.596;10.042;2024-01-11T08:38:59;23.27;;;7.50;;
15637;SDS011;26604;53.596;10.042;2024-01-11T08:41:26;24.38;;;9.05;;
15637;SDS011;26604;53.596;10.042;2024-01-11T08:43:52;17.67;;;7.95;;
15637;SDS011;26604;53.596;10.042;2024-01-11T08:46:23;19.95;;;8.23;;
15637;SDS011;26604;53.596;10.042;2024-01-11T08:48:50;23.92;;;8.82;;
15637;SDS011;26604;53.596;10.042;2024-01-11T08:51:17;27.55;;;8.82;;
15637;SDS011;26604;53.596;10.042;2024-01-11T08:53:44;31.75;;;9.05;;
15637;SDS011;26604;53.596;10.042;2024-01-11T08:56:13;22.13;;;7.88;;
15637;SDS011;26604;53.596;10.042;2024-01-11T08:58:41;23.38;;;8.63;;
15637;SDS011;26604;53.596;10.042;2024-01-11T09:01:08;21.92;;;8.75;;
15637;SDS011;26604;53.596;10.042;2024-01-11T09:03:35;21.52;;;8.20;;
15637;SDS011;26604;53.596;10.042;2024-01-11T09:06:02;27.77;;;8.38;;
15637;SDS011;26604;53.596;10.042;2024-01-11T09:08:29;18.75;;;7.22;;
15637;SDS011;26604;53.596;10.042;2024-01-11T09:10:56;22.20;;;8.27;;
15637;SDS011;26604;53.596;10.042;2024-01-11T09:13:26;23.40;;;8.48;;
15637;SDS011;26604;53.596;10.042;2024-01-11T09:15:54;24.02;;;9.27;;
15637;SDS011;26604;53.596;10.042;2024-01-11T09:18:21;20.85;;;7.68;;
15637;SDS011;26604;53.596;10.042;2024-01-11T09:20:48;20.33;;;8.35;;
15637;SDS011;26604;53.596;10.042;2024-01-11T09:23:15;23.92;;;8.75;;
15637;SDS011;26604;53.596;10.042;2024-01-11T09:25:43;27.67;;;8.90;;
15637;SDS011;26604;53.596;10.042;2024-01-11T09:28:10;20.92;;;7.75;;
15637;SDS011;26604;53.596;10.042;2024-01-11T09:30:38;21.98;;;7.78;;
15637;SDS011;26604;53.596;10.042;2024-01-11T09:33:05;22.65;;;7.43;;
15637;SDS011;26604;53.596;10.042;2024-01-11T09:35:32;23.58;;;6.47;;
15637;SDS011;26604;53.596;10.042;2024-01-11T09:37:59;20.00;;;7.32;;
15637;SDS011;26604;53.596;10.042;2024-01-11T09:40:26;29.73;;;8.18;;
15637;SDS011;26604;53.596;10.042;2024-01-11T09:42:53;25.20;;;7.70;;
15637;SDS011;26604;53.596;10.042;2024-01-11T09:45:19;20.38;;;7.30;;
15637;SDS011;26604;53.596;10.042;2024-01-11T09:47:48;16.73;;;6.28;;
15637;SDS011;26604;53.596;10.042;2024-01-11T09:50:17;21.92;;;8.57;;
15637;SDS011;26604;53.596;10.042;2024-01-11T09:52:45;16.23;;;6.80;;
15637;SDS011;26604;53.596;10.042;2024-01-11T09:55:13;18.13;;;6.95;;
15637;SDS011;26604;53.596;10.042;2024-01-11T09:57:41;21.58;;;7.47;;
15637;SDS011;26604;53.596;10.042;2024-01-11T10:00:11;25.63;;;7.95;;
15637;SDS011;26604;53.596;10.042;2024-01-11T10:02:43;16.30;;;6.63;;
15637;SDS011;26604;53.596;10.042;2024-01-11T10:05:12;16.10;;;6.90;;
15637;SDS011;26604;53.596;10.042;2024-01-11T10:07:40;20.20;;;7.45;;
15637;SDS011;26604;53.596;10.042;2024-01-11T10:10:07;16.25;;;6.18;;
15637;SDS011;26604;53.596;10.042;2024-01-11T10:12:34;15.25;;;5.80;;
15637;SDS011;26604;53.596;10.042;2024-01-11T10:15:04;16.85;;;5.95;;
15637;SDS011;26604;53.596;10.042;2024-01-11T10:17:34;15.48;;;5.70;;
15637;SDS011;26604;53.596;10.042;2024-01-11T10:20:01;18.08;;;6.05;;
15637;SDS011;26604;53.596;10.042;2024-01-11T10:22:31;16.63;;;6.20;;
15637;SDS011;26604;53.596;10.042;2024-01-11T10:25:07;16.60;;;6.13;;
15637;SDS011;26604;53.596;10.042;2024-01-11T10:27:36;16.85;;;6.30;;
15637;SDS011;26604;53.596;10.042;2024-01-11T10:30:03;18.42;;;6.13;;
15637;SDS011;26604;53.596;10.042;2024-01-11T10:32:32;19.00;;;5.90;;
15637;SDS011;26604;53.596;10.042;2024-01-11T10:35:00;19.77;;;5.97;;
15637;SDS011;26604;53.596;10.042;2024-01-11T10:37:31;16.08;;;6.38;;
15637;SDS011;26604;53.596;10.042;2024-01-11T10:40:01;20.38;;;6.35;;
15637;SDS011;26604;53.596;10.042;2024-01-11T10:42:34;18.60;;;6.65;;
15637;SDS011;26604;53.596;10.042;2024-01-11T10:45:04;24.17;;;7.38;;
15637;SDS011;26604;53.596;10.042;2024-01-11T10:47:39;17.30;;;6.95;;
15637;SDS011;26604;53.596;10.042;2024-01-11T10:50:14;24.75;;;6.85;;
15637;SDS011;26604;53.596;10.042;2024-01-11T10:52:46;21.55;;;6.75;;
15637;SDS011;26604;53.596;10.042;2024-01-11T10:55:22;16.45;;;6.50;;
15637;SDS011;26604;53.596;10.042;2024-01-11T10:57:50;20.52;;;7.07;;
15637;SDS011;26604;53.596;10.042;2024-01-11T11:00:19;20.98;;;7.38;;
15637;SDS011;26604;53.596;10.042;2024-01-11T11:02:51;16.98;;;6.78;;
15637;SDS011;26604;53.596;10.042;2024-01-11T11:05:21;16.85;;;7.07;;
15637;SDS011;26604;53.596;10.042;2024-01-11T11:07:50;22.55;;;8.40;;
15637;SDS011;26604;53.596;10.042;2024-01-11T11:10:18;18.50;;;7.70;;
15637;SDS011;26604;53.596;10.042;2024-01-11T11:12:47;23.02;;;7.95;;
15637;SDS011;26604;53.596;10.042;2024-01-11T11:15:15;20.27;;;7.90;;
15637;SDS011;26604;53.596;10.042;2024-01-11T11:17:42;17.38;;;7.65;;
15637;SDS011;26604;53.596;10.042;2024-01-11T11:20:11;20.67;;;6.97;;
15637;SDS011;26604;53.596;10.042;2024-01-11T11:22:39;23.20;;;8.43;;
15637;SDS011;26604;53.596;10.042;2024-01-11T11:25:09;21.75;;;8.02;;
15637;SDS011;26604;53.596;10.042;2024-01-11T11:27:36;20.27;;;8.65;;
15637;SDS011;26604;53.596;10.042;2024-01-11T11:30:03;19.95;;;8.05;;
15637;SDS011;26604;53.596;10.042;2024-01-11T11:32:34;25.38;;;8.85;;
15637;SDS011;26604;53.596;10.042;2024-01-11T11:35:02;25.60;;;9.20;;
15637;SDS011;26604;53.596;10.042;2024-01-11T11:37:29;21.17;;;8.50;;
15637;SDS011;26604;53.596;10.042;2024-01-11T11:39:57;20.98;;;8.43;;
15637;SDS011;26604;53.596;10.042;2024-01-11T11:42:25;22.27;;;9.07;;
15637;SDS011;26604;53.596;10.042;2024-01-11T11:44:53;24.48;;;8.35;;
15637;SDS011;26604;53.596;10.042;2024-01-11T11:47:23;26.10;;;10.00;;
15637;SDS011;26604;53.596;10.042;2024-01-11T11:49:56;21.67;;;9.27;;
15637;SDS011;26604;53.596;10.042;2024-01-11T11:52:24;26.67;;;9.13;;
15637;SDS011;26604;53.596;10.042;2024-01-11T11:54:51;23.20;;;8.90;;
15637;SDS011;26604;53.596;10.042;2024-01-11T11:57:19;20.95;;;8.82;;
15637;SDS011;26604;53.596;10.042;2024-01-11T11:59:49;26.05;;;10.32;;
15637;SDS011;26604;53.596;10.042;2024-01-11T12:02:16;25.20;;;8.52;;
15637;SDS011;26604;53.596;10.042;2024-01-11T12:04:46;27.40;;;10.45;;
15637;SDS011;26604;53.596;10.042;2024-01-11T12:07:13;25.30;;;10.07;;
15637;SDS011;26604;53.596;10.042;2024-01-11T12:09:40;24.35;;;9.30;;
15637;SDS011;26604;53.596;10.042;2024-01-11T12:12:07;22.08;;;9.85;;
15637;SDS011;26604;53.596;10.042;2024-01-11T12:14:35;23.10;;;9.32;;
15637;SDS011;26604;53.596;10.042;2024-01-11T12:17:03;23.45;;;9.13;;
15637;SDS011;26604;53.596;10.042;2024-01-11T12:19:31;23.13;;;9.93;;
15637;SDS011;26604;53.596;10.042;2024-01-11T12:21:59;25.60;;;9.93;;
15637;SDS011;26604;53.596;10.042;2024-01-11T12:24:26;26.33;;;10.95;;
15637;SDS011;26604;53.596;10.042;2024-01-11T12:26:56;22.33;;;9.85;;
15637;SDS011;26604;53.596;10.042;2024-01-11T12:29:23;25.45;;;11.13;;
15637;SDS011;26604;53.596;10.042;2024-01-11T12:31:50;26.13;;;10.13;;
15637;SDS011;26604;53.596;10.042;2024-01-11T12:34:19;25.27;;;10.52;;
15637;SDS011;26604;53.596;10.042;2024-01-11T12:36:46;26.00;;;10.77;;
15637;SDS011;26604;53.596;10.042;2024-01-11T12:39:13;30.73;;;10.70;;
15637;SDS011;26604;53.596;10.042;2024-01-11T12:41:42;33.88;;;11.88;;
15637;SDS011;26604;53.596;10.042;2024-01-11T12:44:09;29.20;;;10.77;;
15637;SDS011;26604;53.596;10.042;2024-01-11T12:46:36;38.10;;;12.23;;
15637;SDS011;26604;53.596;10.042;2024-01-11T12:49:03;23.10;;;10.68;;
15637;SDS011;26604;53.596;10.042;2024-01-11T12:51:31;29.00;;;11.48;;
15637;SDS011;26604;53.596;10.042;2024-01-11T12:53:58;28.85;;;11.93;;
15637;SDS011;26604;53.596;10.042;2024-01-11T12:56:25;30.48;;;11.82;;
15637;SDS011;26604;53.596;10.042;2024-01-11T12:59:04;26.60;;;11.50;;
15637;SDS011;26604;53.596;10.042;2024-01-11T13:01:31;28.00;;;11.02;;
15637;SDS011;26604;53.596;10.042;2024-01-11T13:03:59;29.95;;;11.10;;
15637;SDS011;26604;53.596;10.042;2024-01-11T13:06:27;27.23;;;11.60;;
15637;SDS011;26604;53.596;10.042;2024-01-11T13:08:56;27.73;;;11.48;;
15637;SDS011;26604;53.596;10.042;2024-01-11T13:11:23;29.13;;;11.18;;
15637;SDS011;26604;53.596;10.042;2024-01-11T13:13:50;27.67;;;11.55;;
15637;SDS011;26604;53.596;10.042;2024-01-11T13:16:17;27.33;;;11.30;;
15637;SDS011;26604;53.596;10.042;2024-01-11T13:18:44;25.73;;;11.38;;
15637;SDS011;26604;53.596;10.042;2024-01-11T13:21:11;27.73;;;11.30;;
15637;SDS011;26604;53.596;10.042;2024-01-11T13:23:38;27.67;;;11.57;;
15637;SDS011;26604;53.596;10.042;2024-01-11T13:26:07;28.65;;;11.88;;
15637;SDS011;26604;53.596;10.042;2024-01-11T13:28:34;27.92;;;11.45;;
15637;SDS011;26604;53.596;10.042;2024-01-11T13:31:01;32.72;;;11.93;;
15637;SDS011;26604;53.596;10.042;2024-01-11T13:33:28;25.00;;;11.60;;
15637;SDS011;26604;53.596;10.042;2024-01-11T13:35:55;31.05;;;12.80;;
15637;SDS011;26604;53.596;10.042;2024-01-11T13:38:22;30.15;;;11.80;;
15637;SDS011;26604;53.596;10.042;2024-01-11T13:40:49;24.95;;;10.93;;
15637;SDS011;26604;53.596;10.042;2024-01-11T13:43:17;30.23;;;11.90;;
15637;SDS011;26604;53.596;10.042;2024-01-11T13:45:44;26.25;;;10.93;;
15637;SDS011;26604;53.596;10.042;2024-01-11T13:48:10;24.92;;;11.00;;
15637;SDS011;26604;53.596;10.042;2024-01-11T13:50:38;23.35;;;10.93;;
15637;SDS011;26604;53.596;10.042;2024-01-11T13:53:04;27.85;;;11.50;;
15637;SDS011;26604;53.596;10.042;2024-01-11T13:55:31;30.88;;;12.23;;
15637;SDS011;26604;53.596;10.042;2024-01-11T13:58:03;26.50;;;12.05;;
15637;SDS011;26604;53.596;10.042;2024-01-11T14:00:31;27.90;;;12.02;;
15637;SDS011;26604;53.596;10.042;2024-01-11T14:02:58;37.22;;;12.98;;
15637;SDS011;26604;53.596;10.042;2024-01-11T14:05:25;30.95;;;11.48;;
15637;SDS011;26604;53.596;10.042;2024-01-11T14:07:52;28.50;;;11.63;;
15637;SDS011;26604;53.596;10.042;2024-01-11T14:10:23;28.48;;;11.77;;
15637;SDS011;26604;53.596;10.042;2024-01-11T14:12:50;25.17;;;10.98;;
15637;SDS011;26604;53.596;10.042;2024-01-11T14:15:17;30.08;;;11.20;;
15637;SDS011;26604;53.596;10.042;2024-01-11T14:17:45;29.63;;;10.52;;
15637;SDS011;26604;53.596;10.042;2024-01-11T14:20:13;28.83;;;11.63;;